Time;durP1;ratioP1;P1;durP2;ratioP2;P2;SDS_P1;SDS_P2;PMS_P1;PMS_P2;Temp;Humidity;BMP_temperature;BMP_pressure;BME280_temperature;BME280_humidity;BME280_pressure;Samples;Min_cycle;Max_cycle;Signal;HPM_P1;HPM_P2
2023/04/29 00:01:21;;;;;;;35.83;25.30;;;10.50;99.90;;;;;;4951506;28;20042;-72
2023/04/29 00:03:48;;;;;;;42.78;27.92;;;10.40;99.90;;;;;;4954258;28;20037;-72
2023/04/29 00:06:14;;;;;;;45.42;31.35;;;10.50;99.90;;;;;;4952735;28;20074;-73
2023/04/29 00:08:41;;;;;;;41.80;28.25;;;10.40;99.90;;;;;;4949944;28;20034;-73
2023/04/29 00:11:07;;;;;;;41.25;27.52;;;10.40;99.90;;;;;;4963955;28;20128;-70
2023/04/29 00:13:33;;;;;;;34.50;24.95;;;10.40;99.90;;;;;;4931145;28;20033;-72
2023/04/29 00:15:59;;;;;;;37.08;26.52;;;10.30;99.90;;;;;;4949301;28;21306;-70
2023/04/29 00:18:26;;;;;;;46.78;31.13;;;10.30;99.90;;;;;;4948605;28;20039;-73
2023/04/29 00:20:52;;;;;;;40.10;25.60;;;10.20;99.90;;;;;;4936122;28;20050;-72
2023/04/29 00:23:18;;;;;;;38.05;24.85;;;10.20;99.90;;;;;;4940104;28;20041;-74
2023/04/29 00:25:45;;;;;;;30.27;19.63;;;10.20;99.90;;;;;;4952078;28;20420;-70
2023/04/29 00:28:11;;;;;;;35.33;24.33;;;10.20;99.90;;;;;;4947396;28;20137;-72
2023/04/29 00:30:37;;;;;;;40.20;28.40;;;10.20;99.90;;;;;;4945738;28;20062;-71
2023/04/29 00:33:03;;;;;;;38.70;26.52;;;10.30;99.90;;;;;;4945873;28;20041;-72
2023/04/29 00:35:30;;;;;;;37.50;24.20;;;10.20;99.90;;;;;;4948321;28;20484;-74
2023/04/29 00:37:57;;;;;;;36.80;24.42;;;10.30;99.90;;;;;;4948652;28;20030;-70
2023/04/29 00:40:23;;;;;;;36.00;24.98;;;10.20;99.90;;;;;;4956509;28;20500;-72
2023/04/29 00:42:49;;;;;;;43.67;30.02;;;10.30;99.90;;;;;;4937406;28;20022;-72
2023/04/29 00:45:16;;;;;;;32.65;22.48;;;10.20;99.90;;;;;;4955336;28;20042;-71
2023/04/29 00:47:42;;;;;;;32.13;22.33;;;10.20;99.90;;;;;;4949999;28;20034;-72
2023/04/29 00:50:08;;;;;;;33.55;22.98;;;10.20;99.90;;;;;;4949621;28;20042;-73
2023/04/29 00:52:37;;;;;;;35.30;24.13;;;10.20;99.90;;;;;;4947788;28;20037;-71
2023/04/29 00:55:06;;;;;;;37.55;25.00;;;10.20;99.90;;;;;;4951875;28;20046;-74
2023/04/29 00:57:33;;;;;;;35.17;23.60;;;10.20;99.90;;;;;;4934440;28;20039;-71
2023/04/29 00:59:59;;;;;;;38.13;26.50;;;10.20;99.90;;;;;;4954645;28;20034;-70
2023/04/29 01:02:27;;;;;;;36.92;24.73;;;10.20;99.90;;;;;;4958731;28;20022;-73
2023/04/29 01:04:53;;;;;;;41.45;28.08;;;10.20;99.90;;;;;;4962320;28;20030;-70
2023/04/29 01:07:31;;;;;;;34.47;23.52;;;10.20;99.90;;;;;;4936955;28;20497;-69
2023/04/29 01:10:18;;;;;;;33.22;22.90;;;10.20;99.90;;;;;;4948190;28;20077;-69
2023/04/29 01:12:58;;;;;;;35.97;23.60;;;10.20;99.90;;;;;;4965736;28;20030;-72
2023/04/29 01:15:40;;;;;;;36.42;23.98;;;10.20;99.90;;;;;;4936808;28;20042;-73
2023/04/29 01:18:19;;;;;;;38.03;25.40;;;10.20;99.90;;;;;;4969390;28;20030;-71
2023/04/29 01:20:46;;;;;;;32.17;22.70;;;10.10;99.90;;;;;;4955793;28;20034;-71
2023/04/29 01:23:12;;;;;;;38.90;25.85;;;10.10;99.90;;;;;;4940369;28;20049;-70
2023/04/29 01:25:41;;;;;;;44.65;28.20;;;10.10;99.90;;;;;;4956474;28;20870;-68
2023/04/29 01:28:41;;;;;;;37.05;25.40;;;10.10;99.90;;;;;;4968043;28;20505;-72
2023/04/29 01:31:48;;;;;;;34.40;23.00;;;10.10;99.90;;;;;;4934114;28;20512;-69
2023/04/29 01:34:26;;;;;;;30.85;20.38;;;10.10;99.90;;;;;;4949078;28;20042;-71
2023/04/29 01:37:09;;;;;;;32.70;19.95;;;10.10;99.90;;;;;;4951558;28;20481;-69
2023/04/29 01:39:52;;;;;;;33.17;21.38;;;10.10;99.90;;;;;;4949682;28;20034;-73
2023/04/29 01:42:33;;;;;;;33.42;21.67;;;10.10;99.90;;;;;;4956347;28;20539;-68
2023/04/29 01:45:07;;;;;;;25.63;17.15;;;10.10;99.90;;;;;;4943446;28;20065;-72
2023/04/29 01:47:35;;;;;;;28.20;19.23;;;10.10;99.90;;;;;;4949781;28;20030;-69
2023/04/29 01:50:01;;;;;;;31.27;20.35;;;10.10;99.90;;;;;;4946328;28;20125;-71
2023/04/29 01:52:28;;;;;;;33.60;22.35;;;10.10;99.90;;;;;;4960539;28;20030;-68
2023/04/29 01:54:56;;;;;;;31.13;19.65;;;10.10;99.90;;;;;;4951068;28;20500;-71
2023/04/29 01:57:24;;;;;;;36.92;23.02;;;10.10;99.90;;;;;;4947104;28;20562;-69
2023/04/29 02:00:17;;;;;;;30.13;18.98;;;10.10;99.90;;;;;;4939990;28;20038;-69
2023/04/29 02:02:49;;;;;;;28.40;19.80;;;10.10;99.90;;;;;;4967754;28;20297;-71
2023/04/29 02:05:25;;;;;;;36.33;22.52;;;10.10;99.90;;;;;;4928969;28;20034;-70
2023/04/29 02:07:55;;;;;;;31.65;19.75;;;10.10;99.90;;;;;;4966112;28;20892;-71
2023/04/29 02:10:22;;;;;;;36.85;23.08;;;10.10;99.90;;;;;;4946175;28;20130;-72
2023/04/29 02:12:58;;;;;;;29.25;20.45;;;10.10;99.90;;;;;;4932321;28;20393;-69
2023/04/29 02:15:27;;;;;;;29.00;19.20;;;10.10;99.90;;;;;;4934506;28;20461;-71
2023/04/29 02:17:54;;;;;;;39.33;24.30;;;10.10;99.90;;;;;;4965764;28;20038;-69
2023/04/29 02:20:21;;;;;;;34.40;21.08;;;10.10;99.90;;;;;;4953268;28;20042;-71
2023/04/29 02:22:47;;;;;;;28.15;19.05;;;10.10;99.90;;;;;;4940268;28;20030;-69
2023/04/29 02:25:13;;;;;;;30.48;19.23;;;10.10;99.90;;;;;;4957014;28;20030;-70
2023/04/29 02:27:40;;;;;;;26.02;17.23;;;10.10;99.90;;;;;;4950371;28;20045;-68
2023/04/29 02:30:07;;;;;;;23.20;16.33;;;10.10;99.90;;;;;;4964767;28;20026;-71
2023/04/29 02:32:34;;;;;;;28.17;18.55;;;10.10;99.90;;;;;;4913622;28;20050;-69
2023/04/29 02:35:00;;;;;;;26.25;16.98;;;10.10;99.90;;;;;;4931117;28;20042;-71
2023/04/29 02:37:28;;;;;;;22.10;16.00;;;10.10;99.90;;;;;;4931485;28;20038;-72
2023/04/29 02:39:54;;;;;;;28.90;18.77;;;10.10;99.90;;;;;;4953159;28;20041;-71
2023/04/29 02:42:20;;;;;;;30.05;20.23;;;10.10;99.90;;;;;;4957085;28;20054;-70
2023/04/29 02:44:46;;;;;;;27.05;17.35;;;10.10;99.90;;;;;;4924424;28;20372;-71
2023/04/29 02:47:13;;;;;;;30.65;19.05;;;10.10;99.90;;;;;;4948985;28;20045;-69
2023/04/29 02:49:39;;;;;;;29.35;18.58;;;10.10;99.90;;;;;;4931518;28;20418;-71
2023/04/29 02:52:06;;;;;;;29.27;18.58;;;10.10;99.90;;;;;;4943564;28;20046;-71
2023/04/29 02:54:33;;;;;;;26.63;17.55;;;10.10;99.90;;;;;;4949072;28;20030;-69
2023/04/29 02:57:00;;;;;;;26.17;17.42;;;10.10;99.90;;;;;;4949979;28;20533;-72
2023/04/29 02:59:26;;;;;;;29.95;19.52;;;10.10;99.90;;;;;;4964340;28;20026;-74
2023/04/29 03:01:53;;;;;;;29.60;17.38;;;10.10;99.90;;;;;;4968111;28;20042;-70
2023/04/29 03:04:19;;;;;;;23.58;16.20;;;10.10;99.90;;;;;;4973893;28;20034;-70
2023/04/29 03:06:48;;;;;;;26.77;17.00;;;10.10;99.90;;;;;;4955682;28;20144;-72
2023/04/29 03:09:14;;;;;;;25.83;15.88;;;10.10;99.90;;;;;;4948673;28;20077;-70
2023/04/29 03:11:43;;;;;;;31.52;19.63;;;10.10;99.90;;;;;;4926567;28;20057;-71
2023/04/29 03:14:09;;;;;;;27.25;17.85;;;10.10;99.90;;;;;;4966393;28;20028;-70
2023/04/29 03:16:36;;;;;;;25.08;16.75;;;10.10;99.90;;;;;;4966229;28;20034;-71
2023/04/29 03:19:02;;;;;;;22.63;15.35;;;10.00;99.90;;;;;;4932954;28;20049;-71
2023/04/29 03:21:29;;;;;;;26.25;17.30;;;10.10;99.90;;;;;;4931534;28;20038;-69
2023/04/29 03:23:55;;;;;;;23.60;14.50;;;10.00;99.90;;;;;;4957678;28;20042;-69
2023/04/29 03:26:28;;;;;;;25.55;16.42;;;10.10;99.90;;;;;;4957678;28;20433;-69
2023/04/29 03:28:54;;;;;;;25.30;15.75;;;10.00;99.90;;;;;;4932066;28;20046;-69
2023/04/29 03:31:22;;;;;;;23.52;16.33;;;10.00;99.90;;;;;;4945185;28;20030;-73
2023/04/29 03:33:49;;;;;;;26.02;16.88;;;10.00;99.90;;;;;;4948276;28;20053;-69
2023/04/29 03:36:16;;;;;;;24.30;15.23;;;10.00;99.90;;;;;;4951806;28;20038;-69
2023/04/29 03:39:01;;;;;;;23.52;16.10;;;10.00;99.90;;;;;;4967013;28;20516;-71
2023/04/29 03:41:29;;;;;;;24.17;15.30;;;10.00;99.90;;;;;;4954741;28;20050;-71
2023/04/29 03:43:59;;;;;;;28.42;18.50;;;10.00;99.90;;;;;;4941457;28;20034;-69
2023/04/29 03:46:27;;;;;;;31.98;18.98;;;10.00;99.90;;;;;;4955307;28;20018;-70
2023/04/29 03:48:56;;;;;;;29.02;19.05;;;10.00;99.90;;;;;;4947858;28;22757;-72
2023/04/29 03:51:24;;;;;;;26.85;17.00;;;10.00;99.90;;;;;;4945168;28;20055;-71
2023/04/29 03:53:57;;;;;;;27.92;19.00;;;10.00;99.90;;;;;;4963054;28;20034;-70
2023/04/29 03:56:24;;;;;;;24.90;16.17;;;10.00;99.90;;;;;;4950526;28;20039;-70
2023/04/29 03:58:51;;;;;;;26.65;16.88;;;9.90;99.90;;;;;;4948983;28;20038;-71
2023/04/29 04:01:19;;;;;;;26.45;16.35;;;10.00;99.90;;;;;;4966836;28;20030;-72
2023/04/29 04:03:46;;;;;;;28.95;18.55;;;9.90;99.90;;;;;;4970984;28;20027;-71
2023/04/29 04:06:13;;;;;;;29.77;19.40;;;10.00;99.90;;;;;;4958963;28;20516;-70
2023/04/29 04:08:40;;;;;;;28.05;16.75;;;10.00;99.90;;;;;;4949973;28;20034;-73
2023/04/29 04:11:16;;;;;;;24.67;17.92;;;9.90;99.90;;;;;;4931113;28;20047;-71
2023/04/29 04:13:48;;;;;;;27.02;16.90;;;9.90;99.90;;;;;;4949421;28;20042;-71
2023/04/29 04:16:16;;;;;;;27.08;18.60;;;9.90;99.90;;;;;;4956177;28;20041;-70
2023/04/29 04:18:43;;;;;;;28.95;17.85;;;9.90;99.90;;;;;;4955370;28;20388;-70
2023/04/29 04:21:10;;;;;;;24.77;17.63;;;10.00;99.90;;;;;;4956262;28;20046;-68
2023/04/29 04:23:39;;;;;;;25.10;17.35;;;9.90;99.90;;;;;;4959769;28;20041;-68
2023/04/29 04:26:07;;;;;;;26.08;17.05;;;9.90;99.90;;;;;;4945179;28;20038;-71
2023/04/29 04:29:01;;;;;;;20.75;14.60;;;9.90;99.90;;;;;;4957915;28;20050;-68
2023/04/29 04:31:47;;;;;;;23.55;17.42;;;9.90;99.90;;;;;;4948204;28;20444;-68
2023/04/29 04:34:14;;;;;;;20.48;15.13;;;9.90;99.90;;;;;;4937173;28;20370;-72
2023/04/29 04:36:41;;;;;;;22.98;16.10;;;9.90;99.90;;;;;;4923735;28;20045;-69
2023/04/29 04:39:07;;;;;;;24.10;17.05;;;9.90;99.90;;;;;;4951561;28;20358;-73
2023/04/29 04:41:34;;;;;;;21.27;14.77;;;9.90;99.90;;;;;;4951466;28;20069;-70
2023/04/29 04:44:01;;;;;;;22.27;16.13;;;9.90;99.90;;;;;;4957325;28;20038;-70
2023/04/29 04:46:41;;;;;;;22.85;16.40;;;9.90;99.90;;;;;;4958290;28;20046;-73
2023/04/29 04:49:30;;;;;;;22.92;17.52;;;9.90;99.90;;;;;;4934802;28;20050;-70
2023/04/29 04:51:56;;;;;;;25.52;17.52;;;9.90;99.90;;;;;;4945613;28;20065;-72
2023/04/29 04:54:23;;;;;;;19.88;14.82;;;9.90;99.90;;;;;;4952068;28;20038;-71
2023/04/29 04:57:04;;;;;;;24.35;17.08;;;9.90;99.90;;;;;;4939454;28;20042;-71
2023/04/29 04:59:30;;;;;;;19.00;14.02;;;9.90;99.90;;;;;;4949959;28;20037;-71
2023/04/29 05:01:57;;;;;;;23.27;18.73;;;9.90;99.90;;;;;;4963129;28;20042;-70
2023/04/29 05:04:23;;;;;;;25.10;18.00;;;9.90;99.90;;;;;;4977815;28;21954;-71
2023/04/29 05:06:49;;;;;;;27.17;19.02;;;9.90;99.90;;;;;;4960547;28;20592;-71
2023/04/29 05:09:23;;;;;;;21.95;17.23;;;9.90;99.90;;;;;;4949999;28;20046;-71
2023/04/29 05:11:50;;;;;;;20.67;14.98;;;10.00;99.90;;;;;;4927930;28;20089;-71
2023/04/29 05:14:18;;;;;;;21.10;15.77;;;10.00;99.90;;;;;;4938382;28;20371;-69
2023/04/29 05:16:45;;;;;;;22.15;16.45;;;10.00;99.90;;;;;;4935511;28;20038;-69
2023/04/29 05:19:12;;;;;;;19.27;14.60;;;10.00;99.90;;;;;;4950460;28;20670;-73
2023/04/29 05:21:39;;;;;;;15.98;13.48;;;10.10;99.90;;;;;;4948495;28;20045;-71
2023/04/29 05:24:08;;;;;;;24.45;17.45;;;10.10;99.90;;;;;;4971201;28;22985;-71
2023/04/29 05:26:35;;;;;;;21.17;14.63;;;10.20;99.90;;;;;;4975158;28;20057;-72
2023/04/29 05:29:01;;;;;;;19.05;15.70;;;10.20;99.90;;;;;;4951467;28;20042;-71
2023/04/29 05:31:32;;;;;;;22.23;15.70;;;10.20;99.90;;;;;;4944479;28;20337;-72
2023/04/29 05:34:03;;;;;;;19.02;14.27;;;10.30;99.90;;;;;;4947102;28;20034;-71
2023/04/29 05:36:30;;;;;;;21.48;15.05;;;10.30;99.90;;;;;;4949727;28;20041;-69
2023/04/29 05:38:57;;;;;;;20.90;16.15;;;10.30;99.90;;;;;;4954157;28;20038;-69
2023/04/29 05:41:23;;;;;;;21.73;15.18;;;10.30;99.90;;;;;;4948214;28;20042;-71
2023/04/29 05:43:53;;;;;;;19.80;13.82;;;10.40;99.90;;;;;;4971479;28;20027;-70
2023/04/29 05:46:21;;;;;;;19.55;14.50;;;10.40;99.90;;;;;;4943496;28;20057;-68
2023/04/29 05:48:48;;;;;;;26.25;18.58;;;10.50;99.90;;;;;;4937636;28;20545;-68
2023/04/29 05:51:15;;;;;;;21.42;15.27;;;10.50;99.90;;;;;;4929638;28;20073;-70
2023/04/29 05:53:41;;;;;;;22.13;16.13;;;10.40;99.90;;;;;;4947595;28;20045;-68
2023/04/29 05:56:08;;;;;;;19.50;16.05;;;10.50;99.90;;;;;;4966365;28;20398;-70
2023/04/29 05:58:36;;;;;;;17.58;14.27;;;10.40;99.90;;;;;;4935034;28;20049;-68
2023/04/29 06:01:02;;;;;;;19.80;16.30;;;10.50;99.90;;;;;;4931001;28;20042;-72
2023/04/29 06:03:30;;;;;;;22.13;16.08;;;10.50;99.90;;;;;;4970451;28;20046;-71
2023/04/29 06:06:15;;;;;;;21.05;16.48;;;10.50;99.90;;;;;;4958716;28;20026;-68
2023/04/29 06:09:09;;;;;;;26.88;17.58;;;10.60;99.90;;;;;;4952740;28;20046;-72
2023/04/29 06:11:36;;;;;;;20.67;16.50;;;10.60;99.90;;;;;;4926543;28;20050;-69
2023/04/29 06:14:02;;;;;;;24.88;19.13;;;10.70;99.90;;;;;;4963291;28;20397;-69
2023/04/29 06:16:29;;;;;;;20.48;16.48;;;10.70;99.90;;;;;;4952676;28;20073;-70
2023/04/29 06:18:55;;;;;;;22.40;17.63;;;10.80;99.90;;;;;;4948884;28;20038;-69
2023/04/29 06:21:22;;;;;;;24.20;16.92;;;10.80;99.90;;;;;;4929912;28;20507;-69
2023/04/29 06:23:48;;;;;;;22.42;16.85;;;10.80;99.90;;;;;;4941661;28;23449;-69
2023/04/29 06:26:17;;;;;;;15.75;13.02;;;10.80;99.90;;;;;;4956530;28;20041;-72
2023/04/29 06:28:44;;;;;;;19.88;15.20;;;10.90;99.90;;;;;;4951025;28;22888;-69
2023/04/29 06:31:11;;;;;;;16.83;14.20;;;10.90;99.90;;;;;;4932334;28;20567;-70
2023/04/29 06:33:38;;;;;;;18.15;13.90;;;10.90;99.90;;;;;;4932334;28;21341;-72
2023/04/29 06:36:05;;;;;;;21.05;15.82;;;11.10;99.90;;;;;;4951499;28;20069;-70
2023/04/29 06:38:47;;;;;;;22.98;15.93;;;11.10;99.90;;;;;;4965702;28;20035;-69
2023/04/29 06:41:33;;;;;;;23.80;17.77;;;11.20;99.90;;;;;;4946884;28;21173;-70
2023/04/29 06:44:10;;;;;;;25.00;18.15;;;11.20;99.90;;;;;;4973022;28;20305;-70
2023/04/29 06:46:46;;;;;;;21.42;15.40;;;11.20;99.90;;;;;;4955997;28;20063;-70
2023/04/29 06:49:33;;;;;;;20.70;15.07;;;11.20;99.90;;;;;;4946190;28;20049;-72
2023/04/29 06:52:01;;;;;;;17.98;13.25;;;11.30;99.90;;;;;;4927465;28;21215;-70
2023/04/29 06:54:27;;;;;;;22.42;17.20;;;11.30;99.90;;;;;;4949771;28;20038;-73
2023/04/29 06:56:54;;;;;;;22.70;16.40;;;11.40;99.90;;;;;;4935075;28;20049;-71
2023/04/29 06:59:20;;;;;;;20.27;14.48;;;11.40;99.90;;;;;;4947075;28;20030;-68
2023/04/29 07:01:46;;;;;;;22.50;17.40;;;11.50;99.90;;;;;;4963318;28;20034;-70
2023/04/29 07:04:13;;;;;;;17.52;13.30;;;11.50;99.90;;;;;;4954258;28;20038;-72
2023/04/29 07:06:39;;;;;;;23.15;14.80;;;11.50;99.90;;;;;;4957117;28;20763;-70
2023/04/29 07:09:06;;;;;;;18.35;13.00;;;11.60;99.90;;;;;;4936674;28;20054;-73
2023/04/29 07:11:32;;;;;;;22.00;14.95;;;11.70;99.90;;;;;;4945067;28;20050;-77
2023/04/29 07:13:58;;;;;;;21.60;16.02;;;11.80;99.90;;;;;;4947919;28;20057;-70
2023/04/29 07:16:29;;;;;;;20.38;14.55;;;11.90;99.90;;;;;;4948233;28;20623;-69
2023/04/29 07:18:55;;;;;;;22.63;16.83;;;11.90;99.90;;;;;;4932704;28;20038;-72
2023/04/29 07:21:22;;;;;;;18.85;13.23;;;12.00;99.90;;;;;;4961847;28;20042;-71
2023/04/29 07:23:48;;;;;;;18.52;12.82;;;12.10;99.90;;;;;;4952209;28;20034;-74
2023/04/29 07:26:16;;;;;;;18.70;13.85;;;12.20;99.90;;;;;;4956112;28;20038;-72
2023/04/29 07:28:45;;;;;;;19.83;12.20;;;12.30;99.90;;;;;;4948677;28;20037;-72
2023/04/29 07:31:11;;;;;;;20.90;13.25;;;12.40;99.90;;;;;;4943452;28;20315;-75
2023/04/29 07:33:38;;;;;;;19.85;13.43;;;12.50;99.90;;;;;;4944004;28;20038;-74
2023/04/29 07:36:06;;;;;;;16.38;11.23;;;12.50;99.90;;;;;;4948004;28;20043;-73
2023/04/29 07:38:33;;;;;;;17.48;11.80;;;12.60;99.90;;;;;;4947364;28;20720;-70
2023/04/29 07:40:59;;;;;;;13.38;9.93;;;12.70;99.90;;;;;;4959413;28;20031;-76
2023/04/29 07:43:26;;;;;;;13.70;10.85;;;12.70;99.90;;;;;;4950776;28;20607;-74
2023/04/29 07:45:52;;;;;;;21.52;15.43;;;12.80;99.90;;;;;;4974112;28;20050;-75
2023/04/29 07:48:20;;;;;;;22.00;14.27;;;12.90;99.90;;;;;;4967199;28;20038;-73
2023/04/29 07:50:46;;;;;;;15.43;12.05;;;12.90;99.90;;;;;;4927326;28;20520;-71
2023/04/29 07:53:14;;;;;;;14.20;10.93;;;13.00;99.90;;;;;;4944997;28;20045;-72
2023/04/29 07:55:41;;;;;;;15.30;9.18;;;13.00;99.90;;;;;;4949426;28;20290;-70
2023/04/29 07:58:08;;;;;;;13.07;9.13;;;13.10;99.90;;;;;;4964405;28;20053;-74
2023/04/29 08:00:34;;;;;;;14.88;10.73;;;13.20;99.90;;;;;;4942823;28;20054;-74
2023/04/29 08:03:01;;;;;;;11.85;8.77;;;13.30;99.90;;;;;;4964118;28;20035;-73
2023/04/29 08:05:29;;;;;;;11.55;8.98;;;13.40;99.90;;;;;;4956657;28;20030;-74
2023/04/29 08:07:56;;;;;;;17.92;10.60;;;13.50;99.90;;;;;;4950796;28;20038;-74
2023/04/29 08:10:26;;;;;;;15.52;10.55;;;13.50;99.90;;;;;;4947398;28;20050;-73
2023/04/29 08:12:52;;;;;;;11.55;8.68;;;13.60;99.90;;;;;;4945761;28;20046;-72
2023/04/29 08:15:19;;;;;;;12.00;8.55;;;13.70;99.90;;;;;;4946187;28;20026;-73
2023/04/29 08:17:46;;;;;;;19.25;9.55;;;13.70;99.90;;;;;;4947351;28;20027;-74
2023/04/29 08:20:12;;;;;;;11.40;7.47;;;13.80;99.90;;;;;;4946823;28;20512;-74
2023/04/29 08:22:38;;;;;;;14.60;10.45;;;13.90;99.90;;;;;;4941395;28;20034;-75
2023/04/29 08:25:05;;;;;;;11.45;8.15;;;13.90;99.90;;;;;;4954176;28;20966;-73
2023/04/29 08:27:32;;;;;;;12.23;8.80;;;14.00;99.90;;;;;;4954877;28;20047;-75
2023/04/29 08:29:58;;;;;;;13.25;9.10;;;14.00;99.90;;;;;;4951114;28;20046;-74
2023/04/29 08:32:25;;;;;;;11.43;8.38;;;14.10;99.90;;;;;;4924270;28;20449;-74
2023/04/29 08:34:51;;;;;;;11.43;8.20;;;14.20;99.90;;;;;;4949860;28;20256;-72
2023/04/29 08:37:19;;;;;;;11.93;9.05;;;14.30;99.90;;;;;;4949116;28;20402;-72
2023/04/29 08:39:46;;;;;;;12.35;9.40;;;14.40;99.90;;;;;;4945630;28;20034;-72
2023/04/29 08:42:12;;;;;;;9.57;6.68;;;14.50;99.90;;;;;;4941707;28;20686;-72
2023/04/29 08:44:40;;;;;;;14.27;9.60;;;14.60;99.90;;;;;;4952404;28;20041;-72
2023/04/29 08:47:07;;;;;;;13.00;8.88;;;14.80;99.90;;;;;;4953700;28;20026;-71
2023/04/29 08:49:36;;;;;;;9.60;7.43;;;14.80;99.90;;;;;;4953748;28;21059;-72
2023/04/29 08:52:03;;;;;;;11.90;8.07;;;14.90;99.90;;;;;;4940666;28;20426;-72
2023/04/29 08:54:31;;;;;;;9.82;7.65;;;14.90;99.90;;;;;;4933941;28;20046;-73
2023/04/29 08:56:58;;;;;;;12.38;7.72;;;15.00;99.90;;;;;;4947628;28;20023;-72
2023/04/29 08:59:26;;;;;;;9.27;7.07;;;15.10;99.90;;;;;;4944651;28;20043;-72
2023/04/29 09:01:53;;;;;;;9.70;7.78;;;15.10;99.90;;;;;;4944836;28;20497;-71
2023/04/29 09:04:38;;;;;;;14.68;8.38;;;15.10;99.90;;;;;;4955830;28;21458;-72
2023/04/29 09:07:06;;;;;;;11.73;8.30;;;15.00;99.90;;;;;;4957846;28;20057;-73
2023/04/29 09:09:33;;;;;;;8.32;6.40;;;14.90;99.90;;;;;;4956758;28;20065;-73
2023/04/29 09:12:01;;;;;;;9.70;6.93;;;15.00;99.90;;;;;;4944449;28;20416;-73
2023/04/29 09:14:29;;;;;;;10.90;6.65;;;14.90;99.90;;;;;;4952575;28;20144;-74
2023/04/29 09:16:55;;;;;;;11.18;6.63;;;15.00;99.90;;;;;;4966720;28;20054;-73
2023/04/29 09:19:35;;;;;;;9.52;5.93;;;15.30;99.90;;;;;;4949647;28;20336;-72
2023/04/29 09:22:03;;;;;;;8.52;5.18;;;15.60;99.90;;;;;;4944878;28;20480;-75
2023/04/29 09:24:30;;;;;;;7.07;5.45;;;15.80;99.90;;;;;;4959805;28;20563;-72
2023/04/29 09:26:58;;;;;;;10.15;7.60;;;16.10;99.90;;;;;;4958479;28;20413;-75
2023/04/29 09:29:24;;;;;;;10.45;6.40;;;16.20;99.90;;;;;;4956548;28;20034;-73
2023/04/29 09:31:52;;;;;;;11.43;8.38;;;16.40;99.90;;;;;;4960829;28;20034;-73
2023/04/29 09:34:31;;;;;;;8.80;7.18;;;16.70;99.90;;;;;;4934191;28;20053;-74
2023/04/29 09:36:58;;;;;;;9.63;6.72;;;16.90;99.90;;;;;;4951762;28;20038;-72
2023/04/29 09:39:25;;;;;;;8.50;6.70;;;17.10;99.90;;;;;;4949863;28;20046;-74
2023/04/29 09:41:51;;;;;;;6.95;4.80;;;17.20;99.90;;;;;;4927248;28;20038;-74
2023/04/29 09:44:19;;;;;;;6.20;3.97;;;17.30;99.90;;;;;;4951554;28;20045;-75
2023/04/29 09:46:58;;;;;;;5.70;3.22;;;17.30;99.90;;;;;;4958045;28;20045;-72
2023/04/29 09:49:37;;;;;;;7.85;4.10;;;17.20;99.90;;;;;;4957994;28;21234;-72
2023/04/29 09:52:15;;;;;;;5.50;3.78;;;17.20;99.90;;;;;;4945329;28;20041;-74
2023/04/29 09:54:43;;;;;;;6.97;4.05;;;17.00;99.90;;;;;;4952907;28;20046;-73
2023/04/29 09:57:11;;;;;;;7.25;4.25;;;16.80;99.90;;;;;;4949286;28;20492;-71
2023/04/29 09:59:39;;;;;;;5.68;4.47;;;16.80;99.90;;;;;;4946180;28;20041;-72
2023/04/29 10:02:18;;;;;;;6.47;4.38;;;16.80;99.90;;;;;;4959074;28;20065;-72
2023/04/29 10:04:46;;;;;;;7.35;4.18;;;16.80;99.90;;;;;;4954728;28;20049;-72
2023/04/29 10:07:16;;;;;;;7.22;4.22;;;16.80;99.90;;;;;;4939687;28;20034;-72
2023/04/29 10:09:46;;;;;;;9.60;6.15;;;16.80;99.90;;;;;;4955371;28;20727;-72
2023/04/29 10:12:18;;;;;;;8.73;5.00;;;16.80;99.90;;;;;;4944026;28;20451;-72
2023/04/29 10:15:01;;;;;;;6.85;4.43;;;16.90;99.90;;;;;;4966248;28;20069;-72
2023/04/29 10:17:33;;;;;;;5.35;3.03;;;17.00;99.90;;;;;;4949329;28;20038;-75
2023/04/29 10:20:04;;;;;;;;;;;17.30;99.90;;;;;;4932669;28;21780;-73
2023/04/29 10:22:39;;;;;;;6.07;3.58;;;17.50;99.90;;;;;;4943985;28;19924;-73
2023/04/29 10:25:09;;;;;;;5.63;3.55;;;17.80;99.90;;;;;;4954344;28;20061;-72
2023/04/29 10:27:36;;;;;;;4.40;3.17;;;18.00;99.90;;;;;;4955103;28;20469;-73
2023/04/29 10:30:04;;;;;;;5.93;4.00;;;17.90;99.90;;;;;;4951368;28;20053;-75
2023/04/29 10:32:33;;;;;;;6.50;3.22;;;17.70;99.90;;;;;;4952357;28;20042;-73
2023/04/29 10:35:02;;;;;;;3.95;2.50;;;17.40;99.90;;;;;;4957418;28;20050;-75
2023/04/29 10:37:28;;;;;;;8.00;4.13;;;17.20;99.90;;;;;;4949683;28;20038;-73
2023/04/29 10:40:16;;;;;;;4.90;2.50;;;17.10;99.90;;;;;;4944998;28;22452;-75
2023/04/29 10:42:45;;;;;;;5.68;3.53;;;17.00;99.90;;;;;;4928319;28;20038;-73
2023/04/29 10:45:33;;;;;;;3.80;2.88;;;17.00;99.90;;;;;;4917556;28;20018;-73
2023/04/29 10:48:07;;;;;;;5.30;2.20;;;17.00;99.90;;;;;;4949349;28;20263;-73
2023/04/29 10:50:49;;;;;;;3.03;1.50;;;16.90;99.90;;;;;;4949289;28;20466;-73
2023/04/29 10:53:18;;;;;;;5.50;2.85;;;16.80;99.90;;;;;;4949282;28;20045;-74
2023/04/29 10:55:55;;;;;;;7.25;3.10;;;16.70;99.90;;;;;;4955936;28;20617;-73
2023/04/29 10:58:39;;;;;;;3.13;2.22;;;16.60;99.90;;;;;;4946951;28;20034;-73
2023/04/29 11:01:07;;;;;;;4.78;3.03;;;16.60;99.90;;;;;;4943793;28;20599;-73
2023/04/29 11:03:59;;;;;;;3.80;2.17;;;16.60;99.90;;;;;;4926814;28;20027;-74
2023/04/29 11:06:38;;;;;;;4.63;2.70;;;16.90;99.90;;;;;;4932205;28;20034;-74
2023/04/29 11:09:09;;;;;;;3.80;1.83;;;17.40;99.90;;;;;;4944914;28;20539;-76
2023/04/29 11:12:05;;;;;;;4.00;1.90;;;17.70;99.90;;;;;;4949800;28;20377;-73
2023/04/29 11:14:31;;;;;;;4.53;1.90;;;17.90;99.90;;;;;;4956880;28;20049;-73
2023/04/29 11:17:00;;;;;;;3.72;2.33;;;18.00;99.90;;;;;;4965064;28;20034;-75
2023/04/29 11:19:32;;;;;;;4.47;2.20;;;18.00;99.90;;;;;;4946535;28;20041;-73
2023/04/29 11:22:09;;;;;;;3.03;2.20;;;18.00;99.90;;;;;;4941436;28;20057;-75
2023/04/29 11:24:35;;;;;;;4.63;1.95;;;17.90;99.90;;;;;;4946884;28;20072;-74
2023/04/29 11:27:05;;;;;;;4.03;2.30;;;17.80;99.90;;;;;;4947923;28;20046;-73
2023/04/29 11:29:32;;;;;;;3.95;1.85;;;17.80;99.90;;;;;;4951203;28;20038;-75
2023/04/29 11:32:00;;;;;;;3.72;1.90;;;18.00;99.90;;;;;;4923508;28;20034;-74
2023/04/29 11:34:27;;;;;;;5.30;2.47;;;18.00;99.90;;;;;;4956195;28;20497;-73
2023/04/29 11:36:53;;;;;;;4.05;1.63;;;18.10;99.90;;;;;;4956698;28;20403;-74
2023/04/29 11:39:20;;;;;;;4.30;2.00;;;18.90;99.90;;;;;;4955382;28;20050;-72
2023/04/29 11:41:47;;;;;;;3.25;1.65;;;19.90;99.90;;;;;;4942722;28;20034;-71
2023/04/29 11:44:14;;;;;;;5.30;2.10;;;20.30;99.90;;;;;;4931923;28;20038;-73
2023/04/29 11:46:40;;;;;;;1.73;0.90;;;20.20;99.90;;;;;;4950626;28;20045;-72
2023/04/29 11:49:06;;;;;;;3.78;1.38;;;19.80;99.90;;;;;;4947334;28;20041;-71
2023/04/29 11:51:33;;;;;;;2.80;1.58;;;19.40;99.90;;;;;;4962219;28;20042;-71
2023/04/29 11:53:59;;;;;;;3.72;1.63;;;19.10;99.90;;;;;;4952279;28;20037;-72
2023/04/29 11:56:26;;;;;;;3.20;1.20;;;18.80;99.90;;;;;;4958443;28;20398;-71
2023/04/29 11:58:57;;;;;;;2.67;1.63;;;18.60;99.90;;;;;;4972897;28;20041;-73
2023/04/29 12:01:25;;;;;;;5.60;1.70;;;18.40;99.90;;;;;;4929954;28;20687;-72
2023/04/29 12:03:58;;;;;;;2.35;1.10;;;18.30;99.90;;;;;;4944456;28;20469;-71
2023/04/29 12:06:27;;;;;;;2.80;1.08;;;18.10;99.90;;;;;;4949721;28;20049;-72
2023/04/29 12:08:54;;;;;;;2.75;1.50;;;18.00;99.90;;;;;;4951209;28;20365;-71
2023/04/29 12:11:23;;;;;;;3.22;1.58;;;17.90;99.90;;;;;;4927379;28;20042;-72
2023/04/29 12:13:50;;;;;;;3.88;1.30;;;18.00;99.90;;;;;;4956279;28;20037;-74
2023/04/29 12:16:16;;;;;;;2.13;1.15;;;18.50;99.90;;;;;;4958218;28;20049;-72
2023/04/29 12:18:43;;;;;;;4.22;1.90;;;19.90;99.90;;;;;;4940152;28;20413;-73
2023/04/29 12:21:09;;;;;;;4.50;1.98;;;21.00;99.70;;;;;;4947797;28;20042;-73
2023/04/29 12:23:36;;;;;;;2.75;0.98;;;21.20;98.20;;;;;;4945072;28;20334;-72
2023/04/29 12:26:03;;;;;;;3.00;1.40;;;20.90;97.50;;;;;;4950055;28;20051;-72
2023/04/29 12:28:29;;;;;;;4.47;1.75;;;20.40;96.70;;;;;;4952251;28;20045;-73
2023/04/29 12:30:58;;;;;;;3.75;1.20;;;19.80;96.40;;;;;;4948287;28;20041;-71
2023/04/29 12:33:27;;;;;;;3.97;1.35;;;19.30;96.60;;;;;;4951635;28;20046;-73
2023/04/29 12:35:56;;;;;;;2.67;1.40;;;18.90;97.40;;;;;;4959832;28;20805;-71
2023/04/29 12:38:28;;;;;;;3.63;1.10;;;18.80;97.70;;;;;;4958233;28;20544;-74
2023/04/29 12:40:55;;;;;;;2.55;1.13;;;18.80;97.80;;;;;;4933741;28;20046;-73
2023/04/29 12:43:26;;;;;;;2.20;0.90;;;18.70;97.60;;;;;;4943730;28;20377;-70
2023/04/29 12:46:03;;;;;;;3.40;1.60;;;18.80;97.80;;;;;;4955071;28;20033;-73
2023/04/29 12:48:31;;;;;;;2.65;1.48;;;19.00;97.20;;;;;;4971573;28;20034;-73